Ana Sayfa
METAR-TAF:

METAR-TAF

Havaalanları :

Brookhaven Airport

Shirley, New York, Amerika Birleşik Devletleri

Enlem: 40-49-18N, Boylam: 072-52-08W, yükseklik: 25 m

Güncel hava durumu gözlemi

Rapor saat 08:56 UTC de 25 dakika önce yapıldı.
Sakin rüzgar
Sıcaklık 4°C
Nem 93%
Basınç 1017 hPa
Görüş mesafesi: 16.1 km
Açık gökyüzü

METAR: KHWV 200856Z AUTO 00000KT 10SM CLR 04/03 A3004 RMK AO2 SLP172 T00440028 55006

Saat: 05:21 (09:21 UTC)


TAF: eksik

4.000'den fazla havaalanı için hava durumu gözlemleri ve tahminleri (METAR ve TAF raporları).

Kullanılabilir istasyonlar harita üzerinde sarı ve kırmızı noktalarla gösterilir.

İstasyonun adını görmek için fareyi noktanın üzerinde gezdirin.

Sonrasında hava gözlem ve tahminlerini görmek için tıklayın.

Haritayı değiştirmek için: yaklaştırmak için siyah artı işaretli yeşil düğmeye ve uzaklaştırmak için de eksi işaretli düğmeye hızla tıklayın; bitişik haritalar için yeşil okları kullanın.


METAR-TAF: